Weather History for Monroe, MI

Change the Weather History Date:

Sunday, May 19, 2013

  Actual Average Record
Temperature  
Mean Temperature 68 °F -  
Max Temperature 82 °F 72 °F 91 °F (1934)
Min Temperature 53 °F 51 °F 30 °F (2002)
Cooling Degree Days 2    
Growing Degree Days 18 (Base 50)    
Moisture  
Dew Point 58 °F    
Average Humidity 71    
Maximum Humidity 94    
Minimum Humidity 51    
Precipitation  
Precipitation 0.00 in - - ()
Sea Level Pressure  
Sea Level Pressure 29.97 in    
Wind  
Wind Speed 6 mph (ESE)    
Max Wind Speed 13 mph    
Max Gust Speed 16 mph    
Visibility 10 miles    
Events      
Averages and records for this station are not official NWS values.
T = Trace of Precipitation, MM = Missing Value Source: NWS Daily Summary

Daily Weather History Graph

Daily Weather History Graph

Search for Another Location

Airport:

Trip Planner

Search our weather history database for the weather conditions in past years. The results will help you decide how hot, cold, wet, or windy it might be!

Date:

Astronomy

May. 19, 2013 Rise Set
Actual Time 6:09 AM EDT 8:51 PM EDT
Civil Twilight 5:37 AM EDT 9:24 PM EDT
Nautical Twilight 4:56 AM EDT 10:04 PM EDT
Astronomical Twilight 4:10 AM EDT 10:51 PM EDT
Moon 2:49 PM EDT (5/19) 2:38 AM EDT (5/19)
Length of Visible Light 15h 46m
Length of Day
14h 42m
Waxing Gibbous, 65% of the Moon is Illuminated
May 19
Waxing Gibbous
May 25
Full
May 31
Last Quarter
Jun 8
New
Jun 16
First Quarter

Hourly Weather History & Observations

Time (EDT) Temp. Heat Index Dew Point Humidity Pressure Visibility Wind Dir Wind Speed Gust Speed Precip Events Conditions
12:14 AM 60.8 °F - 48.2 °F 63% 30.04 in 10.0 mi East 6.9 mph - N/A   Clear
12:34 AM 60.8 °F - 48.2 °F 63% 30.03 in 10.0 mi East 6.9 mph - N/A   Clear
12:54 AM 60.8 °F - 48.2 °F 63% 30.03 in 10.0 mi East 5.8 mph - N/A   Clear
1:14 AM 60.8 °F - 48.2 °F 63% 30.03 in 10.0 mi East 8.1 mph - N/A   Clear
1:34 AM 60.8 °F - 48.2 °F 63% 30.02 in 10.0 mi East 8.1 mph - N/A   Clear
1:54 AM 60.8 °F - 48.2 °F 63% 30.02 in 10.0 mi East 8.1 mph - N/A   Clear
2:14 AM 60.8 °F - 48.2 °F 63% 30.01 in 10.0 mi East 8.1 mph - N/A   Clear
2:34 AM 60.8 °F - 48.2 °F 63% 30.00 in 10.0 mi East 5.8 mph - N/A   Clear
2:54 AM 60.8 °F - 48.2 °F 63% 29.99 in 10.0 mi East 5.8 mph - N/A   Clear
3:14 AM 59.0 °F - 50.0 °F 72% 29.99 in 10.0 mi East 4.6 mph - N/A   Clear
3:35 AM 59.0 °F - 51.8 °F 77% 29.98 in 10.0 mi ESE 6.9 mph - N/A   Clear
3:55 AM 57.2 °F - 51.8 °F 82% 29.99 in 10.0 mi ENE 3.5 mph - N/A   Clear
4:15 AM 57.2 °F - 50.0 °F 77% 30.00 in 10.0 mi Calm Calm - N/A   Clear
4:35 AM 57.2 °F - 50.0 °F 77% 30.00 in 10.0 mi Calm Calm - N/A   Clear
4:55 AM 55.4 °F - 51.8 °F 88% 30.00 in 10.0 mi ENE 3.5 mph - N/A   Clear
5:15 AM 55.4 °F - 51.8 °F 88% 30.01 in 10.0 mi Calm Calm - N/A   Clear
5:35 AM 55.4 °F - 51.8 °F 88% 30.01 in 10.0 mi Calm Calm - N/A   Clear
5:55 AM 53.6 °F - 50.0 °F 88% 30.01 in 10.0 mi Calm Calm - N/A   Clear
6:15 AM 53.6 °F - 51.8 °F 94% 30.01 in 10.0 mi Calm Calm - N/A   Clear
6:35 AM 53.6 °F - 51.8 °F 94% 30.01 in 10.0 mi Calm Calm - N/A   Clear
6:56 AM 55.4 °F - 51.8 °F 88% 30.02 in 10.0 mi North 5.8 mph - N/A   Clear
7:16 AM 55.4 °F - 51.8 °F 88% 30.02 in 10.0 mi Calm Calm - N/A   Clear
7:36 AM 57.2 °F - 51.8 °F 82% 30.02 in 10.0 mi Calm Calm - N/A   Clear
7:56 AM 60.8 °F - 53.6 °F 77% 30.02 in 10.0 mi East 3.5 mph - N/A   Clear
8:16 AM 60.8 °F - 53.6 °F 77% 30.02 in 10.0 mi East 4.6 mph - N/A   Clear
8:36 AM 64.4 °F - 55.4 °F 73% 30.00 in 10.0 mi ESE 4.6 mph - N/A   Clear
8:56 AM 64.4 °F - 57.2 °F 77% 30.01 in 10.0 mi ESE 4.6 mph - N/A   Clear
9:11 AM 66.2 °F - 57.2 °F 73% 30.01 in 10.0 mi ESE 4.6 mph - N/A   Clear
9:31 AM 68.0 °F - 59.0 °F 73% 30.01 in 10.0 mi ESE 3.5 mph - N/A   Clear
9:52 AM 69.8 °F - 60.8 °F 73% 30.01 in 10.0 mi Calm Calm - N/A   Clear
10:12 AM 71.6 °F - 60.8 °F 69% 30.01 in 10.0 mi SSE 3.5 mph - N/A   Clear
10:32 AM 71.6 °F - 62.6 °F 73% 30.00 in 10.0 mi SE 4.6 mph - N/A   Clear
10:52 AM 73.4 °F - 62.6 °F 69% 30.00 in 10.0 mi South 5.8 mph - N/A   Clear
11:12 AM 73.4 °F - 62.6 °F 69% 30.00 in 10.0 mi SSE 4.6 mph - N/A   Clear
11:32 AM 75.2 °F - 62.6 °F 65% 30.00 in 10.0 mi Calm Calm - N/A   Clear
11:52 AM 77.0 °F - 64.4 °F 65% 29.99 in 10.0 mi SE 5.8 mph - N/A   Clear
12:12 PM 78.8 °F - 64.4 °F 61% 29.99 in 10.0 mi SE 4.6 mph - N/A   Clear
12:32 PM 78.8 °F - 64.4 °F 61% 29.99 in 10.0 mi SSE 5.8 mph - N/A   Clear
12:53 PM 78.8 °F - 64.4 °F 61% 29.99 in 10.0 mi SE 6.9 mph - N/A   Clear
1:13 PM 78.8 °F - 64.4 °F 61% 29.98 in 10.0 mi SSE 5.8 mph - N/A   Clear
1:33 PM 80.6 °F 82.3 °F 64.4 °F 58% 29.97 in 10.0 mi SSE 3.5 mph - N/A   Clear
1:53 PM 80.6 °F 81.8 °F 62.6 °F 54% 29.96 in 10.0 mi SSE 4.6 mph - N/A   Clear
2:13 PM 82.4 °F 83.4 °F 62.6 °F 51% 29.96 in 10.0 mi Calm Calm - N/A   Clear
2:33 PM 82.4 °F 83.4 °F 62.6 °F 51% 29.94 in 10.0 mi East 6.9 mph - N/A   Clear
3:13 PM 82.4 °F 83.4 °F 62.6 °F 51% 29.94 in 10.0 mi East 9.2 mph - N/A   Clear
3:33 PM 80.6 °F 82.3 °F 64.4 °F 58% 29.94 in 10.0 mi ESE 9.2 mph - N/A   Clear
3:54 PM 80.6 °F 82.3 °F 64.4 °F 58% 29.94 in 10.0 mi ESE 9.2 mph - N/A   Clear
4:14 PM 80.6 °F 82.3 °F 64.4 °F 58% 29.94 in 10.0 mi ESE 11.5 mph - N/A   Clear
4:34 PM 80.6 °F 82.3 °F 64.4 °F 58% 29.93 in 10.0 mi ESE 10.4 mph - N/A   Clear
4:54 PM 80.6 °F 82.3 °F 64.4 °F 58% 29.92 in 10.0 mi ESE 10.4 mph 16.1 mph N/A   Clear
5:14 PM 78.8 °F - 64.4 °F 61% 29.91 in 10.0 mi ESE 11.5 mph - N/A   Clear
5:34 PM 78.8 °F - 64.4 °F 61% 29.92 in 10.0 mi ESE 12.7 mph - N/A   Clear
5:54 PM 78.8 °F - 64.4 °F 61% 29.91 in 10.0 mi ESE 12.7 mph - N/A   Clear
6:14 PM 77.0 °F - 64.4 °F 65% 29.91 in 10.0 mi SE 11.5 mph - N/A   Clear
6:34 PM 77.0 °F - 64.4 °F 65% 29.91 in 10.0 mi ESE 8.1 mph - N/A   Clear
6:55 PM 77.0 °F - 64.4 °F 65% 29.91 in 10.0 mi ESE 8.1 mph - N/A   Clear
7:15 PM 75.2 °F - 64.4 °F 69% 29.91 in 10.0 mi ESE 9.2 mph - N/A   Clear
7:35 PM 75.2 °F - 64.4 °F 69% 29.91 in 10.0 mi ESE 10.4 mph - N/A   Clear
7:55 PM 75.2 °F - 62.6 °F 65% 29.91 in 10.0 mi SE 6.9 mph - N/A   Clear
8:15 PM 73.4 °F - 62.6 °F 69% 29.91 in 10.0 mi SE 10.4 mph - N/A   Clear
8:35 PM 71.6 °F - 62.6 °F 73% 29.91 in 10.0 mi ESE 10.4 mph - N/A   Clear
8:55 PM 69.8 °F - 62.6 °F 78% 29.92 in 10.0 mi ESE 6.9 mph - N/A   Clear
9:15 PM 69.8 °F - 62.6 °F 78% 29.92 in 10.0 mi ESE 10.4 mph - N/A   Clear
9:35 PM 68.0 °F - 62.6 °F 83% 29.91 in 10.0 mi ESE 8.1 mph - N/A   Clear
9:56 PM 68.0 °F - 62.6 °F 83% 29.92 in 10.0 mi ESE 10.4 mph - N/A   Clear
10:16 PM 66.2 °F - 60.8 °F 83% 29.92 in 10.0 mi ESE 5.8 mph - N/A   Clear
10:36 PM 66.2 °F - 62.6 °F 88% 29.91 in 10.0 mi ESE 6.9 mph - N/A   Clear
10:56 PM 66.2 °F - 62.6 °F 88% 29.91 in 10.0 mi Calm Calm - N/A   Clear
11:16 PM 68.0 °F - 62.6 °F 83% 29.91 in 10.0 mi Calm Calm - N/A   Clear
11:36 PM 66.2 °F - 60.8 °F 83% 29.92 in 10.0 mi Calm Calm - N/A   Clear
11:56 PM 64.4 °F - 60.8 °F 88% 29.92 in 10.0 mi Calm Calm - N/A   Clear